Time,TemperatureF,DewpointF,PressureIn,WindDirection,WindDirectionDegrees,WindSpeedMPH,WindSpeedGustMPH,Humidity,HourlyPrecipIn,Conditions,Clouds,dailyrainin,SolarRadiationWatts/m^2,SoftwareType,DateUTC
2013-02-26 00:02:00,58.8,52.3,29.96,SSE,158,9.2,9.2,79,0.00,SCT,,0.00,0.0,WeatherDisplay:10.37,2013-02-25 22:02:00,
2013-02-26 00:07:00,58.8,52.3,29.96,SSW,202,8.1,8.1,79,0.00,SCT,,0.00,0.0,WeatherDisplay:10.37,2013-02-25 22:07:00,
2013-02-26 00:12:00,58.8,52.3,29.97,South,180,6.9,6.9,79,0.00,SCT,,0.00,0.0,WeatherDisplay:10.37,2013-02-25 22:12:00,
2013-02-26 00:17:00,58.8,52.3,29.96,South,180,3.5,3.7,79,0.00,SCT,,0.00,0.0,WeatherDisplay:10.37,2013-02-25 22:17:00,
2013-02-26 00:22:00,58.8,52.3,29.96,SE,135,10.4,10.4,79,0.00,SCT,,0.00,0.0,WeatherDisplay:10.37,2013-02-25 22:22:00,
2013-02-26 00:27:00,59.0,52.5,29.97,SSW,202,9.2,9.2,79,0.00,SCT,,0.00,0.0,WeatherDisplay:10.37,2013-02-25 22:27:00,
2013-02-26 00:32:00,59.0,52.5,29.96,South,180,9.2,9.2,79,0.00,SCT,,0.00,0.0,WeatherDisplay:10.37,2013-02-25 22:32:00,
2013-02-26 00:37:00,58.8,52.3,29.96,South,180,10.1,10.1,79,0.00,SCT,,0.00,0.0,WeatherDisplay:10.37,2013-02-25 22:37:00,
2013-02-26 00:42:00,58.8,52.3,29.96,SSW,202,8.0,8.0,79,0.00,SCT,,0.00,0.0,WeatherDisplay:10.37,2013-02-25 22:42:00,
2013-02-26 00:47:00,58.8,52.3,29.96,South,180,9.2,9.2,79,0.00,SCT,,0.00,0.0,WeatherDisplay:10.37,2013-02-25 22:47:00,
2013-02-26 00:52:00,58.8,52.3,29.95,SSE,158,10.4,10.4,79,0.00,SCT,,0.00,0.0,WeatherDisplay:10.37,2013-02-25 22:52:00,
2013-02-26 00:57:00,58.8,52.3,29.95,SSE,158,10.4,10.4,79,0.00,SCT,,0.00,0.0,WeatherDisplay:10.37,2013-02-25 22:57:00,
2013-02-26 01:02:00,58.8,52.3,29.95,ESE,112,9.2,9.2,79,0.00,FEW,,0.00,0.0,WeatherDisplay:10.37,2013-02-25 23:02:00,
2013-02-26 01:07:00,58.8,52.3,29.95,South,180,11.5,11.5,79,0.00,FEW,,0.00,0.0,WeatherDisplay:10.37,2013-02-25 23:07:00,
2013-02-26 01:12:00,58.8,52.3,29.95,SSW,202,11.6,11.6,79,0.00,FEW,,0.00,0.0,WeatherDisplay:10.37,2013-02-25 23:12:00,
2013-02-26 01:17:00,58.6,52.1,29.95,SSE,158,4.6,4.6,79,0.00,FEW,,0.00,0.0,WeatherDisplay:10.37,2013-02-25 23:17:00,
2013-02-26 01:22:00,58.6,52.1,29.94,SSW,202,5.8,5.8,79,0.00,FEW,,0.00,0.0,WeatherDisplay:10.37,2013-02-25 23:22:00,
2013-02-26 01:27:00,58.6,52.1,29.94,SSW,202,5.8,5.8,79,0.00,FEW,,0.00,0.0,WeatherDisplay:10.37,2013-02-25 23:27:00,
2013-02-26 01:32:00,58.5,52.0,29.94,South,180,8.1,8.1,79,0.00,FEW,,0.00,0.0,WeatherDisplay:10.37,2013-02-25 23:32:00,
2013-02-26 01:37:00,58.5,52.0,29.95,SE,135,2.3,2.3,79,0.00,FEW,,0.00,0.0,WeatherDisplay:10.37,2013-02-25 23:37:00,
2013-02-26 01:42:00,58.3,51.8,29.95,SSW,202,8.1,8.1,79,0.00,FEW,,0.00,0.0,WeatherDisplay:10.37,2013-02-25 23:42:00,
2013-02-26 01:47:00,58.3,51.8,29.95,South,180,4.6,4.6,79,0.00,FEW,,0.00,0.0,WeatherDisplay:10.37,2013-02-25 23:47:00,
2013-02-26 01:52:00,58.3,51.8,29.95,South,180,4.6,4.6,79,0.00,FEW,,0.00,0.0,WeatherDisplay:10.37,2013-02-25 23:52:00,
2013-02-26 01:57:00,58.3,51.8,29.94,South,180,2.3,2.3,79,0.00,FEW,,0.00,0.0,WeatherDisplay:10.37,2013-02-25 23:57:00,
2013-02-26 02:02:00,58.3,51.8,29.95,SSE,158,2.3,2.9,79,0.00,FEW,,0.00,0.0,WeatherDisplay:10.37,2013-02-26 00:02:00,
2013-02-26 02:07:00,58.3,51.8,29.95,SSW,202,3.5,3.5,79,0.00,FEW,,0.00,0.0,WeatherDisplay:10.37,2013-02-26 00:07:00,
2013-02-26 02:12:00,58.3,51.8,29.95,SE,135,2.3,2.3,79,0.00,FEW,,0.00,0.0,WeatherDisplay:10.37,2013-02-26 00:12:00,
2013-02-26 02:17:00,58.3,52.1,29.95,South,180,5.8,5.8,80,0.00,FEW,,0.00,0.0,WeatherDisplay:10.37,2013-02-26 00:17:00,
2013-02-26 02:22:00,58.3,52.1,29.95,South,180,1.8,0.0,80,0.00,FEW,,0.00,0.0,WeatherDisplay:10.37,2013-02-26 00:22:00,
2013-02-26 02:27:00,58.3,52.1,29.95,South,180,4.6,4.6,80,0.00,FEW,,0.00,0.0,WeatherDisplay:10.37,2013-02-26 00:27:00,
2013-02-26 02:32:00,58.1,52.0,29.95,South,180,6.9,6.9,80,0.00,FEW,,0.00,0.0,WeatherDisplay:10.37,2013-02-26 00:32:00,
2013-02-26 02:37:00,58.1,52.3,29.95,East,90,3.4,3.4,81,0.00,FEW,,0.00,0.0,WeatherDisplay:10.37,2013-02-26 00:37:00,
2013-02-26 02:42:00,58.1,52.3,29.95,South,180,6.9,6.9,81,0.00,FEW,,0.00,0.0,WeatherDisplay:10.37,2013-02-26 00:42:00,
2013-02-26 02:47:00,57.9,52.1,29.95,SW,225,3.5,3.5,81,0.00,FEW,,0.00,0.0,WeatherDisplay:10.37,2013-02-26 00:47:00,
2013-02-26 02:52:00,57.9,52.1,29.95,SSW,202,4.6,4.6,81,0.00,FEW,,0.00,0.0,WeatherDisplay:10.37,2013-02-26 00:52:00,
2013-02-26 02:57:00,57.9,52.1,29.95,South,180,5.8,5.8,81,0.00,FEW,,0.00,0.0,WeatherDisplay:10.37,2013-02-26 00:57:00,
2013-02-26 03:02:00,57.9,52.1,29.95,SSW,202,2.3,4.2,81,0.00,FEW,,0.00,0.0,WeatherDisplay:10.37,2013-02-26 01:02:00,
2013-02-26 03:07:00,57.9,52.1,29.95,SSW,202,2.3,4.2,81,0.00,FEW,,0.00,0.0,WeatherDisplay:10.37,2013-02-26 01:07:00,
2013-02-26 03:12:00,57.9,52.5,29.95,SE,135,5.8,5.8,82,0.00,FEW,,0.00,0.0,WeatherDisplay:10.37,2013-02-26 01:12:00,
2013-02-26 03:17:00,57.9,52.5,29.95,SSE,158,5.8,5.8,82,0.00,FEW,,0.00,0.0,WeatherDisplay:10.37,2013-02-26 01:17:00,
2013-02-26 03:22:00,57.9,52.5,29.95,SSW,202,3.5,3.5,82,0.00,FEW,,0.00,0.0,WeatherDisplay:10.37,2013-02-26 01:22:00,
2013-02-26 03:27:00,57.9,52.8,29.95,SE,135,4.6,4.8,83,0.00,FEW,,0.00,0.0,WeatherDisplay:10.37,2013-02-26 01:27:00,
2013-02-26 03:32:00,57.9,52.8,29.94,South,180,6.9,6.9,83,0.00,FEW,,0.00,0.0,WeatherDisplay:10.37,2013-02-26 01:32:00,
2013-02-26 03:37:00,57.7,34.2,29.94,South,180,3.5,3.5,41,0.00,FEW,,0.00,0.0,WeatherDisplay:10.37,2013-02-26 01:37:00,
2013-02-26 03:42:00,57.7,52.6,29.94,South,180,6.9,6.9,83,0.00,FEW,,0.00,0.0,WeatherDisplay:10.37,2013-02-26 01:42:00,
2013-02-26 03:47:00,57.7,52.6,29.94,SSE,158,6.9,6.9,83,0.00,FEW,,0.00,0.0,WeatherDisplay:10.37,2013-02-26 01:47:00,
2013-02-26 03:52:00,57.7,52.6,29.94,SSE,158,3.5,3.5,83,0.00,FEW,,0.00,0.0,WeatherDisplay:10.37,2013-02-26 01:52:00,
2013-02-26 03:57:00,57.7,52.6,29.95,South,180,4.6,4.6,83,0.00,FEW,,0.00,0.0,WeatherDisplay:10.37,2013-02-26 01:57:00,
2013-02-26 04:02:00,57.7,52.6,29.95,SSW,202,2.3,2.3,83,0.00,FEW,,0.00,0.0,WeatherDisplay:10.37,2013-02-26 02:02:00,
2013-02-26 04:07:00,57.6,52.4,29.95,SSW,202,2.3,2.3,83,0.00,FEW,,0.00,0.0,WeatherDisplay:10.37,2013-02-26 02:07:00,
2013-02-26 04:12:00,57.7,52.6,29.95,SW,225,2.3,2.3,83,0.00,FEW,,0.00,0.0,WeatherDisplay:10.37,2013-02-26 02:12:00,
2013-02-26 04:17:00,57.6,52.4,29.94,SE,135,4.6,4.6,83,0.00,FEW,,0.00,0.0,WeatherDisplay:10.37,2013-02-26 02:17:00,
2013-02-26 04:22:00,57.6,52.8,29.94,ENE,68,3.5,3.5,84,0.00,FEW,,0.00,0.0,WeatherDisplay:10.37,2013-02-26 02:22:00,
2013-02-26 04:27:00,57.6,52.8,29.95,SSE,158,2.3,2.3,84,0.00,FEW,,0.00,0.0,WeatherDisplay:10.37,2013-02-26 02:27:00,
2013-02-26 04:32:00,57.4,52.6,29.95,WSW,248,4.6,4.6,84,0.00,FEW,,0.00,0.0,WeatherDisplay:10.37,2013-02-26 02:32:00,
2013-02-26 04:37:00,57.4,52.6,29.95,SW,225,1.6,1.6,84,0.00,FEW,,0.00,0.0,WeatherDisplay:10.37,2013-02-26 02:37:00,
2013-02-26 04:42:00,57.4,52.6,29.95,SSE,158,5.4,5.4,84,0.00,FEW,,0.00,0.0,WeatherDisplay:10.37,2013-02-26 02:42:00,
2013-02-26 04:47:00,57.0,52.2,29.95,SW,225,9.6,9.6,84,0.00,FEW,,0.00,0.0,WeatherDisplay:10.37,2013-02-26 02:47:00,
2013-02-26 04:52:00,57.0,51.9,29.95,SSW,202,3.5,3.5,83,0.00,FEW,,0.00,0.0,WeatherDisplay:10.37,2013-02-26 02:52:00,
2013-02-26 04:57:00,57.0,51.9,29.94,SSW,202,8.1,8.1,83,0.00,FEW,,0.00,0.0,WeatherDisplay:10.37,2013-02-26 02:57:00,
2013-02-26 05:02:00,57.0,51.6,29.94,SE,135,4.2,4.2,82,0.00,FEW,,0.00,0.0,WeatherDisplay:10.37,2013-02-26 03:02:00,
2013-02-26 05:07:00,57.0,51.6,29.95,South,180,3.5,3.5,82,0.00,FEW,,0.00,0.0,WeatherDisplay:10.37,2013-02-26 03:07:00,
2013-02-26 05:12:00,57.0,51.6,29.95,SSW,202,5.8,5.8,82,0.00,FEW,,0.00,0.0,WeatherDisplay:10.37,2013-02-26 03:12:00,
2013-02-26 05:17:00,57.0,51.6,29.95,South,180,6.9,6.9,82,0.00,FEW,,0.00,0.0,WeatherDisplay:10.37,2013-02-26 03:17:00,
2013-02-26 05:22:00,57.0,51.6,29.95,South,180,3.5,3.5,82,0.00,FEW,,0.00,0.0,WeatherDisplay:10.37,2013-02-26 03:22:00,
2013-02-26 05:27:00,57.0,51.6,29.95,SSW,202,5.4,5.4,82,0.00,FEW,,0.00,0.0,WeatherDisplay:10.37,2013-02-26 03:27:00,
2013-02-26 05:32:00,56.8,51.4,29.95,SSE,158,4.6,4.6,82,0.00,FEW,,0.00,0.0,WeatherDisplay:10.37,2013-02-26 03:32:00,
2013-02-26 05:37:00,56.8,51.4,29.95,SE,135,3.5,3.5,82,0.00,FEW,,0.00,0.0,WeatherDisplay:10.37,2013-02-26 03:37:00,
2013-02-26 05:42:00,56.5,51.1,29.94,South,180,0.0,0.0,82,0.00,FEW,,0.00,0.0,WeatherDisplay:10.37,2013-02-26 03:42:00,
2013-02-26 05:47:00,56.5,51.1,29.95,South,180,5.8,5.8,82,0.00,FEW,,0.00,0.0,WeatherDisplay:10.37,2013-02-26 03:47:00,
2013-02-26 05:52:00,56.3,50.9,29.95,ESE,112,0.0,0.0,82,0.00,FEW,,0.00,0.0,WeatherDisplay:10.37,2013-02-26 03:52:00,
2013-02-26 05:57:00,56.3,50.9,29.95,South,180,3.5,0.0,82,0.00,FEW,,0.00,0.0,WeatherDisplay:10.37,2013-02-26 03:57:00,
2013-02-26 06:02:00,56.3,50.9,29.95,SSE,158,3.8,3.9,82,0.00,FEW,,0.00,0.0,WeatherDisplay:10.37,2013-02-26 04:02:00,
2013-02-26 06:07:00,56.3,50.5,29.95,South,180,4.6,4.6,81,0.00,FEW,,0.00,0.0,WeatherDisplay:10.37,2013-02-26 04:07:00,
2013-02-26 06:12:00,56.1,50.4,29.95,South,180,8.1,8.1,81,0.00,FEW,,0.00,0.0,WeatherDisplay:10.37,2013-02-26 04:12:00,
2013-02-26 06:17:00,56.1,50.4,29.95,SSW,202,0.0,0.0,81,0.00,FEW,,0.00,0.0,WeatherDisplay:10.37,2013-02-26 04:17:00,
2013-02-26 06:22:00,56.1,50.4,29.95,South,180,3.5,3.5,81,0.00,FEW,,0.00,0.0,WeatherDisplay:10.37,2013-02-26 04:22:00,
2013-02-26 06:27:00,56.1,50.4,29.95,South,180,0.0,0.2,81,0.00,FEW,,0.00,0.0,WeatherDisplay:10.37,2013-02-26 04:27:00,
2013-02-26 06:32:00,56.1,50.0,29.95,ESE,112,3.5,3.5,80,0.00,SCT,,0.00,0.0,WeatherDisplay:10.37,2013-02-26 04:32:00,
2013-02-26 06:37:00,56.3,50.2,29.95,South,180,3.5,3.5,80,0.00,SCT,,0.00,0.0,WeatherDisplay:10.37,2013-02-26 04:37:00,
2013-02-26 06:42:00,56.3,50.2,29.95,SSW,202,3.6,3.6,80,0.00,SCT,,0.00,0.0,WeatherDisplay:10.37,2013-02-26 04:42:00,
2013-02-26 06:47:00,56.3,50.2,29.95,ESE,112,1.1,0.0,80,0.00,SCT,,0.00,0.0,WeatherDisplay:10.37,2013-02-26 04:47:00,
2013-02-26 06:53:00,56.3,50.2,29.95,SE,135,2.3,2.3,80,0.00,SCT,,0.00,0.0,WeatherDisplay:10.37,2013-02-26 04:53:00,
2013-02-26 06:58:00,56.3,32.3,29.95,SE,135,0.0,0.0,40,0.00,SCT,,0.00,0.0,WeatherDisplay:10.37,2013-02-26 04:58:00,
2013-02-26 07:00:00,56.3,50.2,29.95,SE,146,0.0,2.0,80,0.00,SCT,,0.00,0.0,WeatherDisplay:10.37,2013-02-26 05:00:00,
2013-02-26 07:05:00,56.3,50.2,29.96,SSW,202,0.0,0.0,80,0.00,SCT,,0.00,0.0,WeatherDisplay:10.37,2013-02-26 05:05:00,
2013-02-26 07:10:00,56.3,50.2,29.96,SSW,202,0.0,0.0,80,0.00,SCT,,0.00,0.0,WeatherDisplay:10.37,2013-02-26 05:10:00,
2013-02-26 07:15:00,56.3,50.2,29.96,West,270,0.0,0.0,80,0.00,SCT,,0.00,0.0,WeatherDisplay:10.37,2013-02-26 05:15:00,
2013-02-26 07:20:00,56.3,50.2,29.96,SSW,202,0.0,0.0,80,0.00,SCT,,0.00,0.0,WeatherDisplay:10.37,2013-02-26 05:20:00,
2013-02-26 07:25:00,56.1,50.0,29.96,South,180,2.3,0.0,80,0.00,SCT,,0.00,0.0,WeatherDisplay:10.37,2013-02-26 05:25:00,
2013-02-26 07:30:00,55.9,49.9,29.96,SSE,158,0.0,0.0,80,0.00,SCT,,0.00,0.0,WeatherDisplay:10.37,2013-02-26 05:30:00,
2013-02-26 07:35:00,55.9,49.9,29.96,SW,225,0.0,0.0,80,0.00,SCT,,0.00,0.0,WeatherDisplay:10.37,2013-02-26 05:35:00,
2013-02-26 07:40:00,55.9,49.9,29.97,SE,135,0.0,0.0,80,0.00,SCT,,0.00,0.0,WeatherDisplay:10.37,2013-02-26 05:40:00,
2013-02-26 07:45:00,55.9,49.9,29.96,SE,135,0.0,0.0,80,0.00,SCT,,0.00,0.0,WeatherDisplay:10.37,2013-02-26 05:45:00,
2013-02-26 07:50:00,55.9,49.9,29.97,SE,135,0.0,0.0,80,0.00,SCT,,0.00,0.0,WeatherDisplay:10.37,2013-02-26 05:50:00,
2013-02-26 07:55:00,55.9,49.9,29.97,SSE,158,0.0,0.0,80,0.00,SCT,,0.00,0.0,WeatherDisplay:10.37,2013-02-26 05:55:00,
2013-02-26 08:00:00,56.1,50.0,29.97,SSE,158,0.0,0.0,80,0.00,SCT,,0.00,0.0,WeatherDisplay:10.37,2013-02-26 06:00:00,
2013-02-26 08:05:00,56.3,50.2,29.97,East,90,0.0,0.0,80,0.00,SCT,,0.00,0.0,WeatherDisplay:10.37,2013-02-26 06:05:00,
2013-02-26 08:10:00,56.5,50.4,29.97,SSE,158,0.0,0.0,80,0.00,SCT,,0.00,0.0,WeatherDisplay:10.37,2013-02-26 06:10:00,
2013-02-26 08:15:00,56.7,50.6,29.97,ESE,112,2.2,2.2,80,0.00,SCT,,0.00,0.0,WeatherDisplay:10.37,2013-02-26 06:15:00,
2013-02-26 08:20:00,57.0,50.9,29.97,SE,135,0.0,0.0,80,0.00,SCT,,0.00,0.0,WeatherDisplay:10.37,2013-02-26 06:20:00,
2013-02-26 08:25:00,57.4,51.3,29.97,SSE,158,0.0,0.0,80,0.00,SCT,,0.00,0.0,WeatherDisplay:10.37,2013-02-26 06:25:00,
2013-02-26 08:30:00,57.7,51.3,29.98,South,180,3.5,3.5,79,0.00,SCT,,0.00,0.0,WeatherDisplay:10.37,2013-02-26 06:30:00,
2013-02-26 08:35:00,58.1,51.6,29.98,SSE,158,5.1,5.1,79,0.00,SCT,,0.00,0.0,WeatherDisplay:10.37,2013-02-26 06:35:00,
2013-02-26 08:40:00,58.3,51.8,29.98,SE,135,1.1,1.1,79,0.00,SCT,,0.00,0.0,WeatherDisplay:10.37,2013-02-26 06:40:00,
2013-02-26 08:45:00,58.6,52.1,29.98,SSW,202,2.3,2.3,79,0.00,SCT,,0.00,0.0,WeatherDisplay:10.37,2013-02-26 06:45:00,
2013-02-26 08:50:00,58.8,52.0,29.98,South,180,5.8,5.8,78,0.00,SCT,,0.00,0.0,WeatherDisplay:10.37,2013-02-26 06:50:00,
2013-02-26 08:55:00,58.8,51.6,29.98,SE,135,1.1,2.3,77,0.00,SCT,,0.00,0.0,WeatherDisplay:10.37,2013-02-26 06:55:00,
2013-02-26 09:00:00,59.0,51.8,29.98,South,180,2.3,2.3,77,0.00,SCT,,0.00,0.0,WeatherDisplay:10.37,2013-02-26 07:00:00,
2013-02-26 09:05:00,59.2,52.0,29.98,South,180,4.7,4.7,77,0.00,FEW,,0.00,0.0,WeatherDisplay:10.37,2013-02-26 07:05:00,
2013-02-26 09:10:00,59.5,52.0,29.98,SE,135,3.5,3.5,76,0.00,FEW,,0.00,0.0,WeatherDisplay:10.37,2013-02-26 07:10:00,
2013-02-26 09:15:00,59.9,52.3,29.98,South,180,4.6,4.6,76,0.00,FEW,,0.00,0.0,WeatherDisplay:10.37,2013-02-26 07:15:00,
2013-02-26 09:20:00,60.1,52.5,29.98,SSW,202,0.0,0.4,76,0.00,FEW,,0.00,0.0,WeatherDisplay:10.37,2013-02-26 07:20:00,
2013-02-26 09:25:00,60.6,52.6,29.99,SSW,202,2.3,2.3,75,0.00,FEW,,0.00,0.0,WeatherDisplay:10.37,2013-02-26 07:25:00,
2013-02-26 09:30:00,61.2,52.8,29.98,South,180,0.0,0.1,74,0.00,FEW,,0.00,0.0,WeatherDisplay:10.37,2013-02-26 07:30:00,
2013-02-26 09:35:00,61.7,53.0,29.98,SE,135,0.0,0.0,73,0.00,FEW,,0.00,0.0,WeatherDisplay:10.37,2013-02-26 07:35:00,
2013-02-26 09:40:00,62.2,53.5,29.99,SSE,158,0.0,0.1,73,0.00,FEW,,0.00,0.0,WeatherDisplay:10.37,2013-02-26 07:40:00,
2013-02-26 09:45:00,62.4,53.3,29.98,SSE,158,2.3,2.3,72,0.00,FEW,,0.00,0.0,WeatherDisplay:10.37,2013-02-26 07:45:00,
2013-02-26 09:50:00,62.8,53.2,29.99,SE,135,3.5,3.5,71,0.00,FEW,,0.00,0.0,WeatherDisplay:10.37,2013-02-26 07:50:00,
2013-02-26 09:55:00,63.1,53.2,29.98,SW,225,0.9,0.9,70,0.00,FEW,,0.00,0.0,WeatherDisplay:10.37,2013-02-26 07:55:00,
2013-02-26 10:00:00,63.5,53.1,29.98,WNW,292,0.0,0.0,69,0.00,FEW,,0.00,0.0,WeatherDisplay:10.37,2013-02-26 08:00:00,
2013-02-26 10:05:00,64.2,53.4,29.99,SW,225,2.3,2.3,68,0.00,FEW,,0.00,0.0,WeatherDisplay:10.37,2013-02-26 08:05:00,
2013-02-26 10:10:00,64.0,52.9,29.98,SW,225,1.1,0.0,67,0.00,FEW,,0.00,0.0,WeatherDisplay:10.37,2013-02-26 08:10:00,
2013-02-26 10:15:00,64.2,52.6,29.98,ESE,112,2.3,2.3,66,0.00,FEW,,0.00,0.0,WeatherDisplay:10.37,2013-02-26 08:15:00,
2013-02-26 10:20:00,65.1,53.5,29.98,West,270,2.5,2.5,66,0.00,FEW,,0.00,0.0,WeatherDisplay:10.37,2013-02-26 08:20:00,
2013-02-26 10:25:00,64.9,52.9,29.98,WNW,292,1.1,0.0,65,0.00,FEW,,0.00,0.0,WeatherDisplay:10.37,2013-02-26 08:25:00,
2013-02-26 10:30:00,64.9,52.9,29.98,NW,315,3.5,3.5,65,0.00,FEW,,0.00,0.0,WeatherDisplay:10.37,2013-02-26 08:30:00,
2013-02-26 10:35:00,64.2,52.2,29.98,WNW,292,3.5,4.0,65,0.00,FEW,,0.00,0.0,WeatherDisplay:10.37,2013-02-26 08:35:00,
2013-02-26 10:40:00,63.5,51.9,29.98,NW,315,3.5,3.5,66,0.00,FEW,,0.00,0.0,WeatherDisplay:10.37,2013-02-26 08:40:00,
2013-02-26 10:45:00,63.9,52.3,29.98,WNW,292,2.0,2.0,66,0.00,FEW,,0.00,0.0,WeatherDisplay:10.37,2013-02-26 08:45:00,
2013-02-26 10:50:00,64.4,52.4,29.98,SW,225,9.2,9.2,65,0.00,FEW,,0.00,0.0,WeatherDisplay:10.37,2013-02-26 08:50:00,
2013-02-26 10:56:00,64.4,52.0,29.98,South,180,6.9,6.9,64,0.00,FEW,,0.00,0.0,WeatherDisplay:10.37,2013-02-26 08:56:00,
2013-02-26 11:01:00,64.0,51.6,29.99,WSW,248,6.9,6.9,64,0.00,FEW,,0.00,0.0,WeatherDisplay:10.37,2013-02-26 09:01:00,
2013-02-26 11:06:00,64.2,52.2,29.98,NW,315,8.1,8.1,65,0.00,FEW,,0.00,0.0,WeatherDisplay:10.37,2013-02-26 09:06:00,
2013-02-26 11:11:00,64.2,51.8,29.98,SW,225,2.9,4.4,64,0.00,FEW,,0.00,0.0,WeatherDisplay:10.37,2013-02-26 09:11:00,
2013-02-26 11:16:00,63.7,50.4,29.98,SW,225,8.1,8.1,62,0.00,FEW,,0.00,0.0,WeatherDisplay:10.37,2013-02-26 09:16:00,
2013-02-26 11:21:00,63.9,50.1,29.98,West,270,6.9,6.9,61,0.00,FEW,,0.00,0.0,WeatherDisplay:10.37,2013-02-26 09:21:00,
2013-02-26 11:26:00,63.7,49.1,29.98,West,270,8.1,8.1,59,0.00,FEW,,0.00,0.0,WeatherDisplay:10.37,2013-02-26 09:26:00,
2013-02-26 11:31:00,63.5,48.0,29.98,WSW,248,3.5,3.6,57,0.00,FEW,,0.00,0.0,WeatherDisplay:10.37,2013-02-26 09:31:00,
2013-02-26 11:36:00,63.5,47.5,29.98,WSW,248,10.4,10.4,56,0.00,FEW,,0.00,0.0,WeatherDisplay:10.37,2013-02-26 09:36:00,
2013-02-26 11:41:00,63.1,47.2,29.98,SSW,202,9.2,9.2,56,0.00,FEW,,0.00,0.0,WeatherDisplay:10.37,2013-02-26 09:41:00,
2013-02-26 11:46:00,63.3,47.3,29.98,WSW,248,3.5,3.5,56,0.00,FEW,,0.00,0.0,WeatherDisplay:10.37,2013-02-26 09:46:00,
2013-02-26 11:51:00,63.7,47.2,29.98,WSW,248,6.9,7.0,55,0.00,FEW,,0.00,0.0,WeatherDisplay:10.37,2013-02-26 09:51:00,
2013-02-26 11:56:00,63.7,46.7,29.97,SSE,158,10.4,10.4,54,0.00,FEW,,0.00,0.0,WeatherDisplay:10.37,2013-02-26 09:56:00,
2013-02-26 12:01:00,64.0,47.1,29.97,WSW,248,4.6,4.6,54,0.00,FEW,,0.00,0.0,WeatherDisplay:10.37,2013-02-26 10:01:00,
2013-02-26 12:06:00,64.2,47.2,29.98,West,270,6.9,6.9,54,0.00,FEW,,0.00,0.0,WeatherDisplay:10.37,2013-02-26 10:06:00,
2013-02-26 12:11:00,64.2,47.2,29.98,WNW,292,9.2,9.2,54,0.00,FEW,,0.00,0.0,WeatherDisplay:10.37,2013-02-26 10:11:00,
2013-02-26 12:16:00,64.6,47.1,29.98,WNW,292,6.9,6.9,53,0.00,FEW,,0.00,0.0,WeatherDisplay:10.37,2013-02-26 10:16:00,
2013-02-26 12:21:00,64.8,47.2,29.98,WSW,248,8.1,8.1,53,0.00,FEW,,0.00,0.0,WeatherDisplay:10.37,2013-02-26 10:21:00,
2013-02-26 12:26:00,64.8,47.2,29.98,West,270,5.6,5.6,53,0.00,FEW,,0.00,0.0,WeatherDisplay:10.37,2013-02-26 10:26:00,
2013-02-26 12:31:00,64.9,46.9,29.98,WSW,248,9.2,9.2,52,0.00,FEW,,0.00,0.0,WeatherDisplay:10.37,2013-02-26 10:31:00,
2013-02-26 12:36:00,64.9,46.9,29.98,WSW,248,6.9,6.9,52,0.00,FEW,,0.00,0.0,WeatherDisplay:10.37,2013-02-26 10:36:00,
2013-02-26 12:41:00,64.6,46.6,29.98,SW,225,8.1,8.1,52,0.00,FEW,,0.00,0.0,WeatherDisplay:10.37,2013-02-26 10:41:00,
2013-02-26 12:46:00,64.6,46.6,29.98,NW,315,12.7,12.7,52,0.00,FEW,,0.00,0.0,WeatherDisplay:10.37,2013-02-26 10:46:00,
2013-02-26 12:51:00,64.8,46.7,29.98,West,270,5.8,5.8,52,0.00,FEW,,0.00,0.0,WeatherDisplay:10.37,2013-02-26 10:51:00,
2013-02-26 12:56:00,65.1,46.5,29.98,WNW,292,4.6,4.6,51,0.00,FEW,,0.00,0.0,WeatherDisplay:10.37,2013-02-26 10:56:00,
2013-02-26 13:01:00,65.1,46.5,29.98,WNW,292,8.1,8.1,51,0.00,FEW,,0.00,0.0,WeatherDisplay:10.37,2013-02-26 11:01:00,
2013-02-26 13:06:00,65.1,46.5,29.98,WSW,248,8.1,8.1,51,0.00,FEW,,0.00,0.0,WeatherDisplay:10.37,2013-02-26 11:06:00,
2013-02-26 13:17:00,65.3,46.7,29.98,West,270,5.8,5.8,51,0.00,FEW,,0.00,0.0,WeatherDisplay:10.37,2013-02-26 11:17:00,
2013-02-26 13:22:00,65.1,46.5,29.98,West,270,5.8,5.8,51,0.00,FEW,,0.00,0.0,WeatherDisplay:10.37,2013-02-26 11:22:00,
2013-02-26 13:27:00,65.3,46.7,29.97,WNW,292,11.5,11.5,51,0.00,FEW,,0.00,0.0,WeatherDisplay:10.37,2013-02-26 11:27:00,
2013-02-26 13:32:00,65.1,46.0,29.97,SW,225,10.4,10.4,50,0.00,FEW,,0.00,0.0,WeatherDisplay:10.37,2013-02-26 11:32:00,
2013-02-26 13:37:00,65.1,45.5,29.98,West,270,4.6,4.6,49,0.00,FEW,,0.00,0.0,WeatherDisplay:10.37,2013-02-26 11:37:00,
2013-02-26 13:42:00,64.9,45.3,29.97,SSW,202,10.4,10.4,49,0.00,FEW,,0.00,0.0,WeatherDisplay:10.37,2013-02-26 11:42:00,
2013-02-26 14:15:00,65.1,44.4,29.97,North,0,4.6,0.0,47,0.00,OVC,,0.00,0.0,WeatherDisplay:10.37,2013-02-26 12:15:00,
2013-02-26 14:20:00,64.9,44.2,29.97,West,270,10.4,10.4,47,0.00,FEW,,0.00,0.0,WeatherDisplay:10.37,2013-02-26 12:20:00,
2013-02-26 14:25:00,65.1,43.8,29.97,WSW,248,3.5,3.5,46,0.00,FEW,,0.00,0.0,WeatherDisplay:10.37,2013-02-26 12:25:00,
2013-02-26 14:30:00,65.1,43.2,29.96,SSW,202,3.5,3.5,45,0.00,FEW,,0.00,0.0,WeatherDisplay:10.37,2013-02-26 12:30:00,
2013-02-26 14:35:00,65.3,44.0,29.97,West,270,5.8,5.8,46,0.00,FEW,,0.00,0.0,WeatherDisplay:10.37,2013-02-26 12:35:00,
2013-02-26 14:40:00,65.1,43.8,29.96,WSW,248,4.6,4.6,46,0.00,FEW,,0.00,0.0,WeatherDisplay:10.37,2013-02-26 12:40:00,
2013-02-26 14:45:00,65.3,44.0,29.96,WNW,292,8.1,8.1,46,0.00,FEW,,0.00,0.0,WeatherDisplay:10.37,2013-02-26 12:45:00,
2013-02-26 14:50:00,65.5,43.6,29.96,West,270,4.0,4.0,45,0.00,FEW,,0.00,0.0,WeatherDisplay:10.37,2013-02-26 12:50:00,
2013-02-26 14:55:00,65.3,43.4,29.95,WSW,248,6.9,6.9,45,0.00,FEW,,0.00,0.0,WeatherDisplay:10.37,2013-02-26 12:55:00,
2013-02-26 15:00:00,65.1,43.2,29.96,West,270,9.2,9.2,45,0.00,FEW,,0.00,0.0,WeatherDisplay:10.37,2013-02-26 13:00:00,
2013-02-26 15:05:00,64.8,42.9,29.96,SW,225,9.2,9.2,45,0.00,FEW,,0.00,0.0,WeatherDisplay:10.37,2013-02-26 13:05:00,
2013-02-26 15:10:00,64.6,42.7,29.96,SSW,202,5.8,5.8,45,0.00,FEW,,0.00,0.0,WeatherDisplay:10.37,2013-02-26 13:10:00,
2013-02-26 15:15:00,64.8,42.3,29.96,NW,315,4.6,4.6,44,0.00,FEW,,0.00,0.0,WeatherDisplay:10.37,2013-02-26 13:15:00,
2013-02-26 15:20:00,64.8,42.3,29.96,WNW,292,10.4,10.4,44,0.00,FEW,,0.00,0.0,WeatherDisplay:10.37,2013-02-26 13:20:00,
2013-02-26 15:25:00,64.9,41.3,29.95,WSW,248,10.4,10.4,42,0.00,FEW,,0.00,0.0,WeatherDisplay:10.37,2013-02-26 13:25:00,
2013-02-26 15:30:00,64.8,41.1,29.95,West,270,4.6,4.6,42,0.00,FEW,,0.00,0.0,WeatherDisplay:10.37,2013-02-26 13:30:00,
2013-02-26 15:35:00,64.9,41.3,29.95,WSW,248,10.7,10.7,42,0.00,FEW,,0.00,0.0,WeatherDisplay:10.37,2013-02-26 13:35:00,
2013-02-26 15:40:00,64.9,40.7,29.95,SSW,202,10.4,10.4,41,0.00,FEW,,0.00,0.0,WeatherDisplay:10.37,2013-02-26 13:40:00,
2013-02-26 15:45:00,65.1,40.2,29.95,SSW,202,5.8,5.8,40,0.00,FEW,,0.00,0.0,WeatherDisplay:10.37,2013-02-26 13:45:00,
2013-02-26 15:50:00,65.1,40.2,29.95,SSW,202,8.1,8.1,40,0.00,FEW,,0.00,0.0,WeatherDisplay:10.37,2013-02-26 13:50:00,
2013-02-26 15:55:00,65.5,39.9,29.95,SW,225,6.9,6.9,39,0.00,FEW,,0.00,0.0,WeatherDisplay:10.37,2013-02-26 13:55:00,
2013-02-26 16:00:00,65.3,39.7,29.95,SSE,158,6.9,6.9,39,0.00,FEW,,0.00,0.0,WeatherDisplay:10.37,2013-02-26 14:00:00,
2013-02-26 16:05:00,65.3,39.7,29.95,SSW,202,4.5,4.5,39,0.00,FEW,,0.00,0.0,WeatherDisplay:10.37,2013-02-26 14:05:00,
2013-02-26 16:10:00,65.3,39.0,29.95,SW,225,9.2,9.2,38,0.00,FEW,,0.00,0.0,WeatherDisplay:10.37,2013-02-26 14:10:00,
2013-02-26 16:15:00,64.8,37.9,29.95,SW,225,5.8,5.8,37,0.00,FEW,,0.00,0.0,WeatherDisplay:10.37,2013-02-26 14:15:00,
2013-02-26 16:20:00,64.6,37.7,29.94,South,180,5.8,5.8,37,0.00,FEW,,0.00,0.0,WeatherDisplay:10.37,2013-02-26 14:20:00,
2013-02-26 16:25:00,64.6,37.7,29.94,SE,135,6.9,6.9,37,0.00,FEW,,0.00,0.0,WeatherDisplay:10.37,2013-02-26 14:25:00,
2013-02-26 16:30:00,64.2,37.4,29.94,SW,225,8.1,8.1,37,0.00,FEW,,0.00,0.0,WeatherDisplay:10.37,2013-02-26 14:30:00,
2013-02-26 16:35:00,64.2,37.4,29.94,SSW,202,4.6,4.6,37,0.00,FEW,,0.00,0.0,WeatherDisplay:10.37,2013-02-26 14:35:00,
2013-02-26 16:40:00,64.2,38.7,29.94,SSW,202,6.9,6.9,39,0.00,FEW,,0.00,0.0,WeatherDisplay:10.37,2013-02-26 14:40:00,
2013-02-26 16:45:00,63.7,38.9,29.94,SSE,158,8.1,8.1,40,0.00,FEW,,0.00,0.0,WeatherDisplay:10.37,2013-02-26 14:45:00,
2013-02-26 16:50:00,63.5,39.4,29.94,WSW,248,3.5,3.5,41,0.00,FEW,,0.00,0.0,WeatherDisplay:10.37,2013-02-26 14:50:00,
2013-02-26 16:55:00,63.1,40.3,29.94,SSW,202,6.9,6.9,43,0.00,FEW,,0.00,0.0,WeatherDisplay:10.37,2013-02-26 14:55:00,
2013-02-26 17:00:00,62.8,41.1,29.95,South,180,9.2,9.2,45,0.00,FEW,,0.00,0.0,WeatherDisplay:10.37,2013-02-26 15:00:00,
2013-02-26 17:05:00,62.4,41.9,29.95,SSW,202,11.5,11.5,47,0.00,FEW,,0.00,0.0,WeatherDisplay:10.37,2013-02-26 15:05:00,
2013-02-26 17:10:00,62.2,41.7,29.95,South,180,8.3,8.3,47,0.00,FEW,,0.00,0.0,WeatherDisplay:10.37,2013-02-26 15:10:00,
2013-02-26 17:15:00,61.9,42.0,29.95,South,180,6.9,6.9,48,0.00,FEW,,0.00,0.0,WeatherDisplay:10.37,2013-02-26 15:15:00,
2013-02-26 17:20:00,61.7,42.3,29.95,SSW,202,12.7,12.7,49,0.00,FEW,,0.00,0.0,WeatherDisplay:10.37,2013-02-26 15:20:00,
2013-02-26 17:25:00,61.5,42.7,29.95,WSW,248,2.9,2.9,50,0.00,FEW,,0.00,0.0,WeatherDisplay:10.37,2013-02-26 15:25:00,
2013-02-26 17:30:00,61.5,42.7,29.95,SW,225,4.6,4.6,50,0.00,FEW,,0.00,0.0,WeatherDisplay:10.37,2013-02-26 15:30:00,
2013-02-26 17:35:00,61.5,42.7,29.95,SSW,202,3.5,3.5,50,0.00,FEW,,0.00,0.0,WeatherDisplay:10.37,2013-02-26 15:35:00,
2013-02-26 17:40:00,61.3,41.5,29.95,SW,225,3.5,3.5,48,0.00,FEW,,0.00,0.0,WeatherDisplay:10.37,2013-02-26 15:40:00,
2013-02-26 17:45:00,61.2,40.8,29.95,WSW,248,8.1,8.1,47,0.00,FEW,,0.00,0.0,WeatherDisplay:10.37,2013-02-26 15:45:00,
2013-02-26 17:50:00,61.0,39.5,29.95,SW,225,3.5,3.5,45,0.00,FEW,,0.00,0.0,WeatherDisplay:10.37,2013-02-26 15:50:00,
2013-02-26 17:55:00,60.8,39.3,29.96,SW,225,5.4,5.4,45,0.00,FEW,,0.00,0.0,WeatherDisplay:10.37,2013-02-26 15:55:00,
2013-02-26 18:00:00,60.4,39.0,29.96,SSW,202,5.8,5.8,45,0.00,FEW,,0.00,0.0,WeatherDisplay:10.37,2013-02-26 16:00:00,
2013-02-26 18:05:00,60.1,38.7,29.96,SW,225,6.9,6.9,45,0.00,FEW,,0.00,0.0,WeatherDisplay:10.37,2013-02-26 16:05:00,
2013-02-26 18:10:00,59.9,38.5,29.96,SW,225,1.1,1.1,45,0.00,FEW,,0.00,0.0,WeatherDisplay:10.37,2013-02-26 16:10:00,
2013-02-26 18:15:00,59.7,38.3,29.96,SSW,202,1.1,1.8,45,0.00,FEW,,0.00,0.0,WeatherDisplay:10.37,2013-02-26 16:15:00,
2013-02-26 18:20:00,59.4,38.6,29.97,SSW,202,3.5,3.5,46,0.00,FEW,,0.00,0.0,WeatherDisplay:10.37,2013-02-26 16:20:00,
2013-02-26 18:25:00,59.2,38.4,29.97,North,0,2.3,2.3,46,0.00,FEW,,0.00,0.0,WeatherDisplay:10.37,2013-02-26 16:25:00,
2013-02-26 18:30:00,59.0,38.2,29.97,WNW,292,0.0,0.0,46,0.00,FEW,,0.00,0.0,WeatherDisplay:10.37,2013-02-26 16:30:00,
2013-02-26 18:35:00,58.8,38.6,29.97,WNW,292,2.3,2.3,47,0.00,FEW,,0.00,0.0,WeatherDisplay:10.37,2013-02-26 16:35:00,
2013-02-26 18:40:00,58.8,39.7,29.97,WNW,292,3.5,3.5,49,0.00,FEW,,0.00,0.0,WeatherDisplay:10.37,2013-02-26 16:40:00,
2013-02-26 18:45:00,58.6,40.6,29.97,West,270,8.1,8.1,51,0.00,FEW,,0.00,0.0,WeatherDisplay:10.37,2013-02-26 16:45:00,
2013-02-26 18:50:00,58.5,40.9,29.97,NW,315,10.4,10.4,52,0.00,FEW,,0.00,0.0,WeatherDisplay:10.37,2013-02-26 16:50:00,
2013-02-26 18:55:00,58.3,40.7,29.98,WSW,248,9.2,9.2,52,0.00,FEW,,0.00,0.0,WeatherDisplay:10.37,2013-02-26 16:55:00,
2013-02-26 19:00:00,58.1,41.0,29.98,WSW,248,10.4,10.4,53,0.00,FEW,,0.00,0.0,WeatherDisplay:10.37,2013-02-26 17:00:00,
2013-02-26 19:05:00,57.9,41.4,29.98,WNW,292,4.6,4.6,54,0.00,FEW,,0.00,0.0,WeatherDisplay:10.37,2013-02-26 17:05:00,
2013-02-26 19:10:00,57.7,41.2,29.99,WSW,248,11.5,11.5,54,0.00,FEW,,0.00,0.0,WeatherDisplay:10.37,2013-02-26 17:10:00,
2013-02-26 19:15:00,57.4,41.3,29.99,NNW,338,3.5,3.5,55,0.00,FEW,,0.00,0.0,WeatherDisplay:10.37,2013-02-26 17:15:00,
2013-02-26 19:20:00,57.0,41.5,29.98,NNW,338,3.6,3.6,56,0.00,FEW,,0.00,0.0,WeatherDisplay:10.37,2013-02-26 17:20:00,
2013-02-26 19:25:00,56.8,42.2,29.98,West,270,8.1,8.1,58,0.00,FEW,,0.00,0.0,WeatherDisplay:10.37,2013-02-26 17:25:00,
2013-02-26 19:30:00,56.8,42.2,29.99,WNW,292,11.5,11.5,58,0.00,FEW,,0.00,0.0,WeatherDisplay:10.37,2013-02-26 17:30:00,
2013-02-26 19:35:00,56.5,42.3,29.99,WNW,292,10.4,10.4,59,0.00,FEW,,0.00,0.0,WeatherDisplay:10.37,2013-02-26 17:35:00,
2013-02-26 19:40:00,56.3,42.6,29.98,WNW,292,10.4,10.4,60,0.00,FEW,,0.00,0.0,WeatherDisplay:10.37,2013-02-26 17:40:00,
2013-02-26 19:45:00,55.9,42.2,29.99,WNW,292,11.5,11.5,60,0.00,FEW,,0.00,0.0,WeatherDisplay:10.37,2013-02-26 17:45:00,
2013-02-26 19:50:00,55.8,41.6,29.99,WNW,292,13.8,13.8,59,0.00,FEW,,0.00,0.0,WeatherDisplay:10.37,2013-02-26 17:50:00,
2013-02-26 19:55:00,55.6,41.5,29.99,WNW,292,9.2,9.2,59,0.00,FEW,,0.00,0.0,WeatherDisplay:10.37,2013-02-26 17:55:00,
2013-02-26 20:00:00,55.6,41.0,29.99,North,0,16.1,16.1,58,0.00,FEW,,0.00,0.0,WeatherDisplay:10.37,2013-02-26 18:00:00,
2013-02-26 20:05:00,55.6,41.0,29.99,NW,315,10.4,10.4,58,0.00,FEW,,0.00,0.0,WeatherDisplay:10.37,2013-02-26 18:05:00,
2013-02-26 20:10:00,55.6,40.6,29.99,WNW,292,11.5,11.5,57,0.00,FEW,,0.00,0.0,WeatherDisplay:10.37,2013-02-26 18:10:00,
2013-02-26 20:15:00,55.4,40.4,29.99,SW,225,12.7,12.7,57,0.00,FEW,,0.00,0.0,WeatherDisplay:10.37,2013-02-26 18:15:00,
2013-02-26 20:20:00,55.4,40.0,29.99,West,270,12.7,12.7,56,0.00,FEW,,0.00,0.0,WeatherDisplay:10.37,2013-02-26 18:20:00,
2013-02-26 20:25:00,55.2,40.2,29.99,NNW,338,9.2,9.2,57,0.00,FEW,,0.00,0.0,WeatherDisplay:10.37,2013-02-26 18:25:00,
2013-02-26 20:30:00,55.2,40.2,29.99,West,270,9.2,9.2,57,0.00,FEW,,0.00,0.0,WeatherDisplay:10.37,2013-02-26 18:30:00,
2013-02-26 20:35:00,55.2,40.2,29.99,WNW,292,10.4,10.4,57,0.00,FEW,,0.00,0.0,WeatherDisplay:10.37,2013-02-26 18:35:00,
2013-02-26 20:40:00,55.0,40.5,29.99,West,270,6.9,6.9,58,0.00,FEW,,0.00,0.0,WeatherDisplay:10.37,2013-02-26 18:40:00,
2013-02-26 20:45:00,55.0,40.5,29.99,NW,315,12.7,12.7,58,0.00,FEW,,0.00,0.0,WeatherDisplay:10.37,2013-02-26 18:45:00,
2013-02-26 20:50:00,54.9,40.4,29.99,West,270,6.9,6.9,58,0.00,FEW,,0.00,0.0,WeatherDisplay:10.37,2013-02-26 18:50:00,
2013-02-26 20:55:00,54.9,40.4,29.99,SW,225,6.9,6.9,58,0.00,FEW,,0.00,0.0,WeatherDisplay:10.37,2013-02-26 18:55:00,
2013-02-26 21:00:00,54.7,39.7,29.99,SSE,158,3.5,3.5,57,0.00,FEW,,0.00,0.0,WeatherDisplay:10.37,2013-02-26 19:00:00,
2013-02-26 21:05:00,54.7,40.2,30.00,SSW,202,1.1,1.1,58,0.00,FEW,,0.00,0.0,WeatherDisplay:10.37,2013-02-26 19:05:00,
2013-02-26 21:10:00,54.7,40.2,30.00,ESE,112,4.6,4.6,58,0.00,FEW,,0.00,0.0,WeatherDisplay:10.37,2013-02-26 19:10:00,
2013-02-26 21:15:00,54.5,40.0,30.00,South,180,2.3,2.3,58,0.00,FEW,,0.00,0.0,WeatherDisplay:10.37,2013-02-26 19:15:00,
2013-02-26 21:20:00,54.5,40.0,30.00,SSW,202,5.8,5.8,58,0.00,FEW,,0.00,0.0,WeatherDisplay:10.37,2013-02-26 19:20:00,
2013-02-26 21:25:00,54.3,39.8,30.00,SW,225,2.3,2.3,58,0.00,FEW,,0.00,0.0,WeatherDisplay:10.37,2013-02-26 19:25:00,
2013-02-26 21:30:00,54.3,40.3,30.00,SSW,202,3.5,3.5,59,0.00,FEW,,0.00,0.0,WeatherDisplay:10.37,2013-02-26 19:30:00,
2013-02-26 21:35:00,54.3,40.3,30.00,SW,225,3.5,3.5,59,0.00,FEW,,0.00,0.0,WeatherDisplay:10.37,2013-02-26 19:35:00,
2013-02-26 21:40:00,54.1,40.1,30.00,South,180,1.1,1.1,59,0.00,FEW,,0.00,0.0,WeatherDisplay:10.37,2013-02-26 19:40:00,
2013-02-26 21:45:00,54.0,39.9,30.00,SSE,158,2.3,2.3,59,0.00,FEW,,0.00,0.0,WeatherDisplay:10.37,2013-02-26 19:45:00,
2013-02-26 21:50:00,54.0,39.9,30.00,SSW,202,2.3,2.3,59,0.00,FEW,,0.00,0.0,WeatherDisplay:10.37,2013-02-26 19:50:00,
2013-02-26 21:55:00,54.0,39.9,30.00,South,180,2.5,2.5,59,0.00,FEW,,0.00,0.0,WeatherDisplay:10.37,2013-02-26 19:55:00,
2013-02-26 22:00:00,54.0,39.9,30.00,WSW,248,2.3,2.3,59,0.00,FEW,,0.00,0.0,WeatherDisplay:10.37,2013-02-26 20:00:00,
2013-02-26 22:05:00,54.0,39.5,30.00,NW,315,0.0,0.0,58,0.00,FEW,,0.00,0.0,WeatherDisplay:10.37,2013-02-26 20:05:00,
2013-02-26 22:10:00,54.0,39.5,30.00,SSE,158,3.5,3.5,58,0.00,FEW,,0.00,0.0,WeatherDisplay:10.37,2013-02-26 20:10:00,
2013-02-26 22:15:00,54.0,39.5,30.00,South,180,4.6,4.6,58,0.00,FEW,,0.00,0.0,WeatherDisplay:10.37,2013-02-26 20:15:00,
2013-02-26 22:20:00,54.0,39.5,30.01,SSW,202,3.5,3.5,58,0.00,FEW,,0.00,0.0,WeatherDisplay:10.37,2013-02-26 20:20:00,
2013-02-26 22:25:00,53.8,39.3,30.01,SSW,202,3.5,3.5,58,0.00,FEW,,0.00,0.0,WeatherDisplay:10.37,2013-02-26 20:25:00,
2013-02-26 22:30:00,53.8,39.3,30.01,SSW,202,2.3,2.3,58,0.00,FEW,,0.00,0.0,WeatherDisplay:10.37,2013-02-26 20:30:00,
2013-02-26 22:35:00,53.4,39.4,30.01,WSW,248,2.3,2.3,59,0.00,FEW,,0.00,0.0,WeatherDisplay:10.37,2013-02-26 20:35:00,
2013-02-26 22:40:00,53.4,39.4,30.01,SW,225,2.3,2.3,59,0.00,FEW,,0.00,0.0,WeatherDisplay:10.37,2013-02-26 20:40:00,
2013-02-26 22:45:00,53.4,39.4,30.01,NW,315,2.3,2.3,59,0.00,FEW,,0.00,0.0,WeatherDisplay:10.37,2013-02-26 20:45:00,
2013-02-26 22:50:00,53.2,39.3,30.01,SSW,202,2.3,2.3,59,0.00,FEW,,0.00,0.0,WeatherDisplay:10.37,2013-02-26 20:50:00,
2013-02-26 22:55:00,53.2,39.7,30.01,NW,315,4.7,4.7,60,0.00,FEW,,0.00,0.0,WeatherDisplay:10.37,2013-02-26 20:55:00,
2013-02-26 23:00:00,53.2,39.7,30.00,SSW,202,4.6,4.6,60,0.00,FEW,,0.00,0.0,WeatherDisplay:10.37,2013-02-26 21:00:00,
2013-02-26 23:05:00,52.9,39.4,30.01,North,0,0.0,0.0,60,0.00,FEW,,0.00,0.0,WeatherDisplay:10.37,2013-02-26 21:05:00,
2013-02-26 23:10:00,52.7,39.6,30.01,West,270,3.5,3.5,61,0.00,FEW,,0.00,0.0,WeatherDisplay:10.37,2013-02-26 21:10:00,
2013-02-26 23:15:00,52.5,39.5,30.01,WSW,248,3.5,3.5,61,0.00,FEW,,0.00,0.0,WeatherDisplay:10.37,2013-02-26 21:15:00,
2013-02-26 23:20:00,52.5,39.9,30.01,SSW,202,3.5,3.5,62,0.00,FEW,,0.00,0.0,WeatherDisplay:10.37,2013-02-26 21:20:00,
2013-02-26 23:25:00,52.5,39.9,30.00,West,270,4.6,4.6,62,0.00,FEW,,0.00,0.0,WeatherDisplay:10.37,2013-02-26 21:25:00,
2013-02-26 23:30:00,52.3,39.7,30.00,SW,225,0.0,0.0,62,0.00,FEW,,0.00,0.0,WeatherDisplay:10.37,2013-02-26 21:30:00,
2013-02-26 23:35:00,52.3,39.7,30.00,SSE,158,2.3,2.3,62,0.00,FEW,,0.00,0.0,WeatherDisplay:10.37,2013-02-26 21:35:00,
2013-02-26 23:40:00,52.3,40.1,30.00,South,180,5.8,5.8,63,0.00,FEW,,0.00,0.0,WeatherDisplay:10.37,2013-02-26 21:40:00,
2013-02-26 23:45:00,52.3,40.1,30.01,South,180,3.5,3.5,63,0.00,FEW,,0.00,0.0,WeatherDisplay:10.37,2013-02-26 21:45:00,
2013-02-26 23:50:00,52.2,39.9,30.00,SSW,202,5.8,5.8,63,0.00,FEW,,0.00,0.0,WeatherDisplay:10.37,2013-02-26 21:50:00,
2013-02-26 23:55:00,52.2,39.9,30.01,South,180,4.6,4.6,63,0.00,FEW,,0.00,0.0,WeatherDisplay:10.37,2013-02-26 21:55:00,